• Visitors can check out the Forum FAQ by clicking this link. You have to register before you can post: click the REGISTER link above to proceed. To start viewing messages, select the forum that you want to visit from the selection below. View our Forum Privacy Policy.
  • Want to receive the latest contracting news and advice straight to your inbox? Sign up to the ContractorUK newsletter here. Every sign up will also be entered into a draw to WIN £100 Amazon vouchers!

User Profile

Collapse

Profile Sidebar

Collapse
Pondlife
Pondlife
Froglike
Last Activity: 30 November 2022, 11:19
Joined: 2 May 2006
Location: Euroland
  •  
  • Filter
  • Time
  • Show
  • Source
Clear All
new posts

  • Pondlife
    replied to test please delete
    Morning all

    METAR EGFF 301050Z AUTO 08008KT 7000 BKN004 OVC015 06/05 Q1025

    Absolutely baltic when I left the house first thing. Bit foggy again today but not as bad as yesterday.
    See more | Go to post

    Leave a comment:


  • Pondlife
    replied to test please delete
    Afternoon All

    METAR COR EGFF 291520Z 08007KT 0600 R12/1300D FG OVC002 05/04 Q1020

    COR = correction (which I've not seen posted before)

    Visibility is 600m but 1300m in the direction of runway 12 - I'd say that's ambitious at best.
    See more | Go to post

    Leave a comment:


  • Pondlife
    replied to test please delete
    Morning all (just)

    METAR EGFF 211120Z AUTO 12017KT 3600 RA BKN007/// OVC011/// //////CB 09/09 Q0985 RERA

    It's horrid out there today and gales are forecast for this afternoon.


    Mind how you go.
    See more | Go to post

    Leave a comment:


  • Pondlife
    replied to Alive Celebrities Thread
    Nigel Farage
    See more | Go to post

    Leave a comment:


  • Pondlife
    replied to test please delete
    Morning all

    METAR EGFF 180950Z AUTO 30016KT 9999 FEW020 SCT028 10/06 Q1002

    Just managing to maintain double figures with more wind forecast this afternoon.

    TFIF!
    See more | Go to post

    Leave a comment:


  • Pondlife
    replied to test please delete
    Morning all

    METAR EGFF 170950Z AUTO 29012KT 9999 NCD 10/09 Q0987

    Gusts 25-30Kts forecast for later

    Christmas tree has been ordered from the local cricket club.

    Last tues eve (8th) whilst out for our evening perambulation I managed to whack my...
    See more | Go to post

    Leave a comment:


  • Pondlife
    replied to test please delete
    Afternoon All,

    METAR EGFF 071250Z AUTO 21011KT 9999 -RA BKN020 BKN025 OVC038 14/// Q1000

    -RA Light rain which has been falling all morning and 14 deg but definitely feels colder.

    Very grey and murkey outside - I assume Somerset is still there but I can't...
    See more | Go to post

    Leave a comment:

No activity results to display
Show More
 

30 November 2021


1 November 2021


26 October 2021


15 October 2021


13 October 2021


12 October 2021


24 September 2021


21 September 2021


22 April 2021


16 April 2021


Working...
X